Observations for CHRISTCHURCH IN, New Zealand (NZCH)

NZCH 130830Z AUTO 06012KT 9000 -RA BKN010/// BKN020/// OVC025/// 15/14 Q1018 NOSIG  
NZCH 130800Z AUTO 07012KT 9999 BKN010/// OVC014/// 15/14 Q1018 NOSIG
NZCH 130730Z AUTO 07011KT 7000 BKN010/// 15/14 Q1017 BECMG 9999 
NZCH 130700Z AUTO 06012KT 9999 BKN010/// BKN015/// 16/14 Q1017 NOSIG
NZCH 130630Z AUTO 06010KT 9999 BKN008/// BKN014/// 16/14 Q1017 NOSIG
NZCH 130600Z AUTO 05011KT 4600 -RA SCT006/// BKN010/// OVC017/// 16/15 Q1017 REDZ BECMG 9999 TEMPO 4000 RADZ BKN008 
NZCH 130530Z AUTO 08010KT 050V120 9999 BKN012/// BKN018/// BKN024/// 17/14 Q1017 NOSIG  
NZCH 130500Z AUTO 09008KT 9999 BKN014/// BKN020/// OVC070/// 18/14 Q1017 BECMG SCT014 BKN020
NZCH 130430Z AUTO 10009KT 9999 SCT015/// BKN031/// OVC070/// 17/14 Q1017 NOSIG  
NZCH 130400Z AUTO 10008KT 9999 BKN016/// BKN028/// BKN035/// 18/14 Q1017 NOSIG  
NZCH 130330Z AUTO 18005KT 130V260 9999 BKN017/// OVC023/// 17/14 Q1017 BECMG 06010KT
NZCH 130300Z AUTO 17005KT 120V230 9999 BKN016/// 17/14 Q1017 BECMG 06010KT  
NZCH 130230Z AUTO 16006KT 9999 OVC015/// 17/13 Q1017 BECMG 06010KT  
NZCH 130200Z AUTO 15007KT 120V190 9999 OVC020/// 17/14 Q1017 BECMG 06010KT  
NZCH 130130Z AUTO 17007KT 140V200 9999 OVC026/// 17/13 Q1017 BECMG 06010KT  
NZCH 130100Z AUTO 17009KT 9999 BKN031/// 17/13 Q1017 BECMG 06010KT TEMPO 7000 SHRA  
NZCH 130030Z AUTO 18009KT 150V210 9999 SCT022/// BKN032/// OVC044/// 18/14 Q1017 BECMG 06010KT TEMPO 7000 SHRA BKN014   
NZCH 130000Z AUTO 20008KT 9999 BKN021/// BKN050/// 18/13 Q1017 TEMPO 6000 SHRA BKN014   
NZCH 122330Z AUTO 22008KT 170V260 9999 BKN029/// BKN055/// BKN070/// 18/13 Q1017 NOSIG  
NZCH 122300Z AUTO 23008KT 210V270 9999 BKN027/// 17/13 Q1017 NOSIG  
NZCH 122230Z AUTO 24009KT 210V270 9999 SCT017/// BKN022/// 17/13 Q1017 NOSIG
NZCH 122200Z AUTO 23006KT 190V260 9999 BKN016/// BKN021/// 17/13 Q1017 NOSIG
NZCH 122130Z AUTO 22007KT 170V260 9999 SCT015/// BKN070/// 17/13 Q1017 TEMPO BKN014 
NZCH 122100Z AUTO 23007KT 200V270 9999 BKN016/// BKN050/// OVC065/// 16/13 Q1017 TEMPO BKN014   
NZCH 122030Z AUTO 22006KT 180V260 9999 SCT012/// OVC065/// 16/13 Q1017 TEMPO BKN012 
NZCH 122000Z AUTO 21007KT 9999 BKN010/// 15/13 Q1017 NOSIG  
NZCH 121930Z AUTO 22005KT 190V250 9999 BKN007/// 15/13 Q1017 NOSIG  
NZCH 121900Z AUTO 23005KT 200V260 9999 BKN007/// BKN095/// 14/13 Q1017 NOSIG
NZCH 121830Z AUTO 24004KT 9999 BKN006/// BKN085/// 14/13 Q1016 NOSIG
NZCH 121800Z AUTO 22004KT 9999 OVC006/// 14/13 Q1016 NOSIG  
NZCH 121730Z AUTO 24004KT 9999 OVC005/// 14/13 Q1016 NOSIG  
NZCH 121700Z AUTO 27003KT 9999 BKN006/// BKN070/// 14/13 Q1016 NOSIG
NZCH 121630Z AUTO 26003KT 9999 BKN007/// 14/13 Q1016 TEMPO 5000 RADZ
NZCH 121600Z AUTO 25003KT 9999 OVC006/// 14/13 Q1016 TEMPO 5000 RADZ
NZCH 121530Z AUTO 25002KT 9999 OVC007/// 14/13 Q1015 NOSIG  
NZCH 121500Z AUTO 24003KT 9999 OVC007/// 14/13 Q1015 NOSIG  
NZCH 121430Z AUTO 26002KT 9999 OVC007/// 14/13 Q1016 NOSIG  
NZCH 121400Z AUTO 28002KT 9999 OVC007/// 14/13 Q1016 NOSIG  
NZCH 121330Z AUTO 28001KT 9999 OVC009/// 14/13 Q1016 BECMG BKN006   
NZCH 121300Z AUTO 35002KT 9999 OVC009/// 14/13 Q1016 TEMPO FM1400 4000 RADZ BKN004  
NZCH 121230Z AUTO 02002KT 9999 BKN010/// BKN016/// 14/13 Q1016 BECMG BKN008 TEMPO FM1400 4000 RADZ BKN004   
NZCH 121200Z AUTO 08003KT 9999 BKN011/// BKN032/// OVC060/// 14/13 Q1016 BECMG BKN008 TEMPO FM1400 4000 RADZ BKN004 
NZCH 121130Z AUTO 07003KT 9999 BKN029/// BKN055/// 14/13 Q1016 BECMG FM1200 BKN008  
NZCH 121100Z AUTO 08003KT 9999 OVC027/// 14/13 Q1016 TEMPO BKN008 BECMG FM1200 BKN008   
NZCH 121030Z AUTO 07005KT 9999 OVC028/// 14/13 Q1015 TEMPO BKN008 BECMG FM1200 BKN008   
NZCH 121000Z AUTO 06006KT 9999 BKN026/// 14/13 Q1015 TEMPO BKN008   
NZCH 120930Z AUTO 08007KT 9999 BKN025/// BKN043/// 14/12 Q1015 BECMG BKN008 
NZCH 120900Z AUTO 06008KT 9999 BKN024/// BKN042/// 14/13 Q1015 BECMG BKN008 
NZCH 120830Z AUTO 07007KT 9999 FEW008/// SCT024/// BKN049/// 14/13 Q1015 BECMG BKN008